Wadi Sudr — SSHX — position and weather

sailwx.info

Track history (hours):
 
Tides and Currents Weather Stations Pressure Air Temp Water Temp Dewpoint Dewpoint Depression Visibility Wind Speed Wind Dir Waves Ship Positions

Wadi Sudr

Last reported at 2018-May-04 13:35 UTC. Time now 2018-May-23 03:12 UTC.
Position N 37°28' E 025°56'.
Warning: this ship's position is 18 days out of date.

Length 224 m; draft 6.8 m.

Type: Cargo ship. MMSI: 366934285.

Date/timePositionNaut miles runAvg speedWind from/ knotsBaromVisibWave heightAir tempDewpointWater temp
2018-May-04 13:35N 37°28' E 025°56'110.1
2018-May-04 13:30N 37°28' E 025°55'  
2018-Apr-30 21:18N 44°22' E 037°13'310.3
2018-Apr-30 21:00N 44°23' E 037°17'510.5
2018-Apr-30 20:31N 44°26' E 037°24'510.8
2018-Apr-30 20:00N 44°28' E 037°30'510.8
2018-Apr-30 19:30N 44°31' E 037°37'3 6.9
2018-Apr-30 19:01N 44°32' E 037°42'4 8.7
2018-Apr-30 18:31N 44°35' E 037°46'5 9.0
2018-Apr-30 18:00N 44°39' E 037°50'3 5.1
2018-Apr-30 17:31N 44°41' E 037°51'0 0.1
2018-Apr-30 16:59N 44°41' E 037°51'0 0.0
2018-Apr-30 16:29N 44°41' E 037°51'0 0.0
2018-Apr-30 15:59N 44°41' E 037°51'0 0.0
2018-Apr-30 15:29N 44°41' E 037°51'0 0.0
2018-Apr-30 14:59N 44°41' E 037°51'0 0.0
2018-Apr-30 14:29N 44°41' E 037°51'0 0.1
2018-Apr-30 13:59N 44°41' E 037°51'0 0.1
2018-Apr-30 13:29N 44°41' E 037°51'0 0.0
2018-Apr-30 12:59N 44°41' E 037°51'0 0.0
2018-Apr-30 12:29N 44°41' E 037°51'0 0.1
2018-Apr-30 12:00N 44°41' E 037°51'2 3.4
2018-Apr-30 11:30N 44°42' E 037°49'2 3.4
2018-Apr-30 11:00N 44°44' E 037°48'0 0.8
2018-Apr-30 10:30N 44°44' E 037°47'0 0.0
2018-Apr-30 10:00N 44°44' E 037°47'0 0.0
2018-Apr-30 09:30N 44°44' E 037°47'0 0.0
2018-Apr-30 09:00N 44°44' E 037°47'0 0.0
2018-Apr-30 08:30N 44°44' E 037°47'0 0.0
2018-Apr-30 08:00N 44°44' E 037°47'0 0.0
2018-Apr-30 07:30N 44°44' E 037°47'0 0.0
2018-Apr-30 07:00N 44°44' E 037°47'0 0.0
2018-Apr-30 06:30N 44°44' E 037°47'0 0.0
2018-Apr-30 06:00N 44°44' E 037°47'0 0.0
2018-Apr-30 05:27N 44°44' E 037°47'0 0.0
2018-Apr-30 05:00N 44°44' E 037°47'0 0.0
2018-Apr-30 04:27N 44°44' E 037°47'0 0.0
2018-Apr-30 04:00N 44°44' E 037°47'0 0.0
2018-Apr-30 03:30N 44°44' E 037°47'0 0.0
2018-Apr-30 03:00N 44°44' E 037°47'0 0.0
2018-Apr-30 02:30N 44°44' E 037°47'0 0.0
2018-Apr-30 02:00N 44°44' E 037°47'0 0.0
2018-Apr-30 01:30N 44°44' E 037°47'0 0.0
2018-Apr-30 01:00N 44°44' E 037°47'0 0.0
2018-Apr-30 00:29N 44°44' E 037°47'0 0.0
2018-Apr-29 23:59N 44°44' E 037°47'0 0.0
2018-Apr-29 23:29N 44°44' E 037°47'0 0.0
2018-Apr-29 22:59N 44°44' E 037°47'0 0.0
2018-Apr-29 22:26N 44°44' E 037°47'0 0.0
2018-Apr-29 21:59N 44°44' E 037°47'0 0.0
2018-Apr-29 21:29N 44°44' E 037°47'0 0.0
2018-Apr-29 20:59N 44°44' E 037°47'0 0.0
2018-Apr-29 20:29N 44°44' E 037°47'0 0.0
2018-Apr-29 19:59N 44°44' E 037°47'0 0.0
2018-Apr-29 19:29N 44°44' E 037°47'0 0.0
2018-Apr-29 18:59N 44°44' E 037°47'0 0.0
2018-Apr-29 18:29N 44°44' E 037°47'0 0.0
2018-Apr-29 17:59N 44°44' E 037°47'0 0.0
2018-Apr-29 17:29N 44°44' E 037°47'0 0.0
2018-Apr-29 16:56N 44°44' E 037°47'0 0.0
2018-Apr-29 16:29N 44°44' E 037°47'0 0.0
2018-Apr-29 15:59N 44°44' E 037°47'0 0.0
2018-Apr-29 15:29N 44°44' E 037°47'0 0.0
2018-Apr-29 14:56N 44°44' E 037°47'0 0.0
2018-Apr-29 14:29N 44°44' E 037°47'0 0.0
2018-Apr-29 13:59N 44°44' E 037°47'0 0.0
2018-Apr-29 13:29N 44°44' E 037°47'0 0.0
2018-Apr-29 12:59N 44°44' E 037°47'0 0.0
2018-Apr-29 12:29N 44°44' E 037°47'0 0.0
2018-Apr-29 11:59N 44°44' E 037°47'0 0.0
2018-Apr-29 11:29N 44°44' E 037°47'0 0.0
2018-Apr-29 10:56N 44°44' E 037°47'0 0.0
2018-Apr-29 10:29N 44°44' E 037°47'0 0.0
2018-Apr-29 09:59N 44°44' E 037°47'0 0.0
2018-Apr-29 09:29N 44°44' E 037°47'0 0.0
2018-Apr-29 08:59N 44°44' E 037°47'0 0.0
2018-Apr-29 08:29N 44°44' E 037°47'0 0.0
2018-Apr-29 07:59N 44°44' E 037°47'0 0.0
2018-Apr-29 07:29N 44°44' E 037°47'0 0.0
2018-Apr-29 06:59N 44°44' E 037°47'0 0.0
2018-Apr-29 06:29N 44°44' E 037°47'0 0.0
2018-Apr-29 05:59N 44°44' E 037°47'0 0.0
2018-Apr-29 05:29N 44°44' E 037°47'0 0.0
2018-Apr-29 04:59N 44°44' E 037°47'0 0.0
2018-Apr-29 04:29N 44°44' E 037°47'0 0.0
2018-Apr-29 03:59N 44°44' E 037°47'0 0.0
2018-Apr-29 03:29N 44°44' E 037°47'0 0.0
2018-Apr-29 02:59N 44°44' E 037°47'0 0.0
2018-Apr-29 02:29N 44°44' E 037°47'0 0.0
2018-Apr-29 01:59N 44°44' E 037°47'0 0.0
2018-Apr-29 01:29N 44°44' E 037°47'0 0.0
2018-Apr-29 00:59N 44°44' E 037°47'0 0.0
2018-Apr-29 00:29N 44°44' E 037°47'0 0.0
2018-Apr-28 23:56N 44°44' E 037°47'0 0.0
2018-Apr-28 23:29N 44°44' E 037°47'0 0.0
2018-Apr-28 22:56N 44°44' E 037°47'0 0.0
2018-Apr-28 22:29N 44°44' E 037°47'0 0.0
2018-Apr-28 21:59N 44°44' E 037°47'0 0.0
2018-Apr-28 21:29N 44°44' E 037°47'0 0.0
2018-Apr-28 20:59N 44°44' E 037°47'0 0.0
2018-Apr-28 20:29N 44°44' E 037°47'0 0.0
2018-Apr-28 19:59N 44°44' E 037°47'0 0.0
2018-Apr-28 19:29N 44°44' E 037°47'0 0.0
2018-Apr-28 18:59N 44°44' E 037°47'0 0.0
2018-Apr-28 18:29N 44°44' E 037°47'0 0.0
2018-Apr-28 17:59N 44°44' E 037°47'0 0.0
2018-Apr-28 17:29N 44°44' E 037°47'0 0.0
2018-Apr-28 16:59N 44°44' E 037°47'0 0.0
2018-Apr-28 16:29N 44°44' E 037°47'0 0.0
2018-Apr-28 15:59N 44°44' E 037°47'0 0.0
2018-Apr-28 15:29N 44°44' E 037°47'0 0.0
2018-Apr-28 14:59N 44°44' E 037°47'0 0.0
2018-Apr-28 14:29N 44°44' E 037°47'0 0.0
2018-Apr-28 13:59N 44°44' E 037°47'0 0.0
2018-Apr-28 13:29N 44°44' E 037°47'0 0.0
2018-Apr-28 12:59N 44°44' E 037°47'0 0.0
2018-Apr-28 12:29N 44°44' E 037°47'0 0.0
2018-Apr-28 11:59N 44°44' E 037°47'0 0.0
2018-Apr-28 11:29N 44°44' E 037°47'0 0.0
2018-Apr-28 10:59N 44°44' E 037°47'0 0.0
2018-Apr-28 10:29N 44°44' E 037°47'0 0.0
2018-Apr-28 09:59N 44°44' E 037°47'0 0.0
2018-Apr-28 09:29N 44°44' E 037°47'0 0.0
2018-Apr-28 08:59N 44°44' E 037°47'0 0.0
2018-Apr-28 08:29N 44°44' E 037°47'0 0.0
2018-Apr-28 07:59N 44°44' E 037°47'0 0.0
2018-Apr-28 07:28N 44°44' E 037°47'0 0.0
2018-Apr-28 06:58N 44°44' E 037°47'0 0.0
2018-Apr-28 06:28N 44°44' E 037°47'0 0.0
2018-Apr-28 05:58N 44°44' E 037°47'0 0.0
2018-Apr-28 05:28N 44°44' E 037°47'0 0.0
2018-Apr-28 04:58N 44°44' E 037°47'0 0.0
2018-Apr-28 04:28N 44°44' E 037°47'0 0.0
2018-Apr-28 03:58N 44°44' E 037°47'0 0.0
2018-Apr-28 03:28N 44°44' E 037°47'0 0.0
2018-Apr-28 02:58N 44°44' E 037°47'0 0.0
2018-Apr-28 02:28N 44°44' E 037°47'0 0.0
2018-Apr-28 01:58N 44°44' E 037°47'0 0.0
2018-Apr-28 01:28N 44°44' E 037°47'0 0.0
2018-Apr-28 00:58N 44°44' E 037°47'0 0.0
2018-Apr-28 00:28N 44°44' E 037°47'0 0.0
2018-Apr-27 23:58N 44°44' E 037°47'0 0.0
2018-Apr-27 23:28N 44°44' E 037°47'0 0.0
2018-Apr-27 22:58N 44°44' E 037°47'0 0.0
2018-Apr-27 22:28N 44°44' E 037°47'0 0.0
2018-Apr-27 21:58N 44°44' E 037°47'0 0.0
2018-Apr-27 21:28N 44°44' E 037°47'0 0.0
2018-Apr-27 20:58N 44°44' E 037°47'0 0.0
2018-Apr-27 20:28N 44°44' E 037°47'0 0.0
2018-Apr-27 19:58N 44°44' E 037°47'0 0.0
2018-Apr-27 19:28N 44°44' E 037°47'0 0.0
2018-Apr-27 18:58N 44°44' E 037°47'0 0.0
2018-Apr-27 18:28N 44°44' E 037°47'0 0.0
2018-Apr-27 17:58N 44°44' E 037°47'0 0.0
2018-Apr-27 17:28N 44°44' E 037°47'0 0.0
2018-Apr-27 16:55N 44°44' E 037°47'0 0.0
2018-Apr-27 16:28N 44°44' E 037°47'0 0.0
2018-Apr-27 16:00N 44°44' E 037°47'0 0.0
2018-Apr-27 15:30N 44°44' E 037°47'1 2.4
2018-Apr-27 15:00N 44°43' E 037°48'4 7.0
2018-Apr-27 14:30N 44°40' E 037°51'5 4.5
2018-Apr-27 13:30N 44°36' E 037°47'611.0
2018-Apr-27 13:00N 44°35' E 037°40'9 0.7
2018-Apr-27 00:37N 44°38' E 037°28'0 0.9
2018-Apr-27 00:28N 44°38' E 037°28'2 1.2
2018-Apr-26 23:01N 44°37' E 037°30'1 1.8
2018-Apr-26 22:43N 44°37' E 037°31'1 3.6
2018-Apr-26 22:30N 44°36' E 037°30'4 8.0
2018-Apr-26 22:00N 44°33' E 037°27'1 1.3
2018-Apr-26 21:12N 44°32' E 037°28'0 0.9
2018-Apr-26 20:51N 44°32' E 037°28'0 0.9
2018-Apr-26 20:27N 44°32' E 037°28'1 0.9
2018-Apr-26 19:54N 44°32' E 037°29'0 0.9
2018-Apr-26 19:27N 44°32' E 037°30'0 1.0
2018-Apr-26 19:00N 44°32' E 037°30'1 1.0
2018-Apr-26 18:23N 44°32' E 037°31'0 0.9
2018-Apr-26 17:53N 44°32' E 037°32'0 0.9
2018-Apr-26 17:29N 44°32' E 037°32'0 0.8
2018-Apr-26 16:59N 44°32' E 037°33'0 0.8
2018-Apr-26 16:26N 44°32' E 037°33'0 0.8
2018-Apr-26 15:59N 44°32' E 037°34'0 0.8
2018-Apr-26 15:29N 44°32' E 037°34'2 0.8
2018-Apr-26 13:29N 44°32' E 037°37'0 0.8
2018-Apr-26 12:56N 44°32' E 037°37'0 0.8
2018-Apr-26 12:29N 44°32' E 037°38'0 0.7
2018-Apr-26 11:59N 44°32' E 037°38'0 0.6
2018-Apr-26 11:14N 44°32' E 037°39'0 0.6
2018-Apr-26 10:59N 44°32' E 037°39'0 0.6
2018-Apr-26 10:29N 44°32' E 037°39'0 0.7
2018-Apr-26 09:59N 44°32' E 037°40'0 0.8
2018-Apr-26 09:29N 44°32' E 037°40'0 0.8
2018-Apr-26 08:59N 44°31' E 037°41'0 0.9
2018-Apr-26 08:26N 44°31' E 037°41'0 0.9
2018-Apr-26 07:59N 44°31' E 037°42'1 1.0
2018-Apr-26 07:29N 44°30' E 037°42'1 1.1
2018-Apr-26 06:59N 44°30' E 037°43'1 1.1
2018-Apr-26 06:26N 44°30' E 037°44'1 1.1
2018-Apr-26 05:56N 44°30' E 037°44'0 1.1
2018-Apr-26 05:29N 44°29' E 037°45'1 1.1
2018-Apr-26 04:59N 44°29' E 037°46'1 1.0
2018-Apr-26 04:20N 44°29' E 037°47'0 1.0
2018-Apr-26 03:56N 44°29' E 037°47'1 1.0
2018-Apr-26 03:14N 44°28' E 037°48'0 1.0
2018-Apr-26 02:59N 44°28' E 037°48'0 1.0
2018-Apr-26 02:29N 44°28' E 037°49'0 0.9
2018-Apr-26 01:59N 44°28' E 037°50'1 1.0
2018-Apr-26 01:23N 44°28' E 037°50'0 0.9
2018-Apr-26 00:59N 44°28' E 037°51'0 0.9
2018-Apr-26 00:29N 44°28' E 037°51'0 0.9
2018-Apr-25 23:59N 44°28' E 037°52'0 0.9
2018-Apr-25 23:29N 44°28' E 037°53'0 0.8
2018-Apr-25 22:59N 44°28' E 037°53'0 0.8
2018-Apr-25 22:29N 44°27' E 037°54'2 0.8
2018-Apr-25 20:14N 44°27' E 037°56'0 0.8
2018-Apr-25 19:53N 44°27' E 037°57'0 0.8
2018-Apr-25 19:26N 44°27' E 037°57'0 0.8
2018-Apr-25 18:59N 44°27' E 037°58'0 0.7
2018-Apr-25 18:26N 44°26' E 037°58'0 0.6
2018-Apr-25 17:47N 44°26' E 037°59'0 0.5
2018-Apr-25 17:08N 44°26' E 037°59'0 0.4
2018-Apr-25 16:59N 44°26' E 037°59'1 1.1
2018-Apr-25 16:29N 44°27' E 037°59'3 6.6
2018-Apr-25 16:00N 44°29' E 037°56'4 8.3
2018-Apr-25 15:30N 44°33' E 037°54'3 5.7
2018-Apr-25 14:59N 44°36' E 037°54'0 0.3
2018-Apr-25 14:29N 44°36' E 037°54'0 0.1
2018-Apr-25 13:59N 44°36' E 037°54'0 0.0
2018-Apr-25 13:29N 44°36' E 037°54'0 0.0
2018-Apr-25 12:59N 44°36' E 037°54'0 0.0
2018-Apr-25 12:29N 44°36' E 037°54'0 0.0
2018-Apr-25 11:59N 44°36' E 037°54'0 0.0
2018-Apr-25 11:29N 44°36' E 037°54'0 0.0
2018-Apr-25 10:59N 44°36' E 037°54'0 0.0
2018-Apr-25 10:26N 44°36' E 037°54'0 0.0
2018-Apr-25 09:59N 44°36' E 037°54'0 0.0
2018-Apr-25 09:29N 44°36' E 037°54'0 0.0
2018-Apr-25 08:59N 44°36' E 037°54'0 0.0
2018-Apr-25 08:29N 44°36' E 037°54'0 0.0
2018-Apr-25 07:59N 44°36' E 037°54'0 0.0
2018-Apr-25 07:29N 44°36' E 037°54'0 0.0
2018-Apr-25 06:59N 44°36' E 037°54'0 0.0
2018-Apr-25 06:29N 44°36' E 037°54'0 0.0
2018-Apr-25 05:59N 44°36' E 037°54'0 0.0
2018-Apr-25 05:26N 44°36' E 037°54'0 0.0
2018-Apr-25 04:59N 44°36' E 037°54'0 0.0
2018-Apr-25 04:29N 44°36' E 037°54'0 0.0
2018-Apr-25 03:59N 44°36' E 037°54'0 0.0
2018-Apr-25 03:29N 44°36' E 037°54'0 0.0
2018-Apr-25 02:59N 44°36' E 037°54'0 0.0
2018-Apr-25 02:29N 44°36' E 037°54'0 0.0
2018-Apr-25 01:59N 44°36' E 037°54'0 0.0
2018-Apr-25 01:29N 44°36' E 037°54'0 0.0
2018-Apr-25 00:59N 44°36' E 037°54'0 0.0
2018-Apr-25 00:29N 44°36' E 037°54'0 0.0
2018-Apr-24 23:59N 44°36' E 037°54'0 0.0
2018-Apr-24 23:29N 44°36' E 037°54'0 0.0
2018-Apr-24 22:59N 44°36' E 037°54'0 0.0
2018-Apr-24 22:29N 44°36' E 037°54'0 0.0
2018-Apr-24 21:59N 44°36' E 037°54'0 0.0
2018-Apr-24 21:29N 44°36' E 037°54'0 0.0
2018-Apr-24 20:59N 44°36' E 037°54'0 0.0
2018-Apr-24 20:29N 44°36' E 037°54'0 0.0
2018-Apr-24 19:59N 44°36' E 037°54'0 0.0
2018-Apr-24 19:29N 44°36' E 037°54'0 0.0
2018-Apr-24 18:59N 44°36' E 037°54'0 0.0
2018-Apr-24 18:29N 44°36' E 037°54'0 0.0
2018-Apr-24 17:59N 44°36' E 037°54'0 0.1
2018-Apr-24 17:29N 44°36' E 037°54'0 0.1
2018-Apr-24 16:59N 44°36' E 037°54'0 0.0
2018-Apr-24 16:29N 44°36' E 037°54'0 0.0
2018-Apr-24 15:56N 44°36' E 037°54'0 0.0
2018-Apr-24 15:29N 44°36' E 037°54'0 0.0
2018-Apr-24 14:59N 44°36' E 037°54'0 0.1
2018-Apr-24 14:29N 44°36' E 037°54'0 0.0
2018-Apr-24 13:59N 44°36' E 037°54'  
Track history (hours):
 
Tides and Currents Weather Stations Pressure Air Temp Water Temp Dewpoint Dewpoint Depression Visibility Wind Speed Wind Dir Waves Ship Positions

Wadi Sudr

Last reported at 2018-May-04 13:35 UTC. Time now 2018-May-23 03:12 UTC.
Position N 37°28' E 025°56'.
Warning: this ship's position is 18 days out of date.

Length 224 m; draft 6.8 m.

Type: Cargo ship. MMSI: 366934285.

Date/timePositionNaut miles runAvg speedWind from/ knotsBaromVisibWave heightAir tempDewpointWater temp
2018-May-04 13:35N 37°28' E 025°56'110.1
2018-May-04 13:30N 37°28' E 025°55'  
2018-Apr-30 21:18N 44°22' E 037°13'310.3
2018-Apr-30 21:00N 44°23' E 037°17'510.5
2018-Apr-30 20:31N 44°26' E 037°24'510.8
2018-Apr-30 20:00N 44°28' E 037°30'510.8
2018-Apr-30 19:30N 44°31' E 037°37'3 6.9
2018-Apr-30 19:01N 44°32' E 037°42'4 8.7
2018-Apr-30 18:31N 44°35' E 037°46'5 9.0
2018-Apr-30 18:00N 44°39' E 037°50'3 5.1
2018-Apr-30 17:31N 44°41' E 037°51'0 0.1
2018-Apr-30 16:59N 44°41' E 037°51'0 0.0
2018-Apr-30 16:29N 44°41' E 037°51'0 0.0
2018-Apr-30 15:59N 44°41' E 037°51'0 0.0
2018-Apr-30 15:29N 44°41' E 037°51'0 0.0
2018-Apr-30 14:59N 44°41' E 037°51'0 0.0
2018-Apr-30 14:29N 44°41' E 037°51'0 0.1
2018-Apr-30 13:59N 44°41' E 037°51'0 0.1
2018-Apr-30 13:29N 44°41' E 037°51'0 0.0
2018-Apr-30 12:59N 44°41' E 037°51'0 0.0
2018-Apr-30 12:29N 44°41' E 037°51'0 0.1
2018-Apr-30 12:00N 44°41' E 037°51'2 3.4
2018-Apr-30 11:30N 44°42' E 037°49'2 3.4
2018-Apr-30 11:00N 44°44' E 037°48'0 0.8
2018-Apr-30 10:30N 44°44' E 037°47'0 0.0
2018-Apr-30 10:00N 44°44' E 037°47'0 0.0
2018-Apr-30 09:30N 44°44' E 037°47'0 0.0
2018-Apr-30 09:00N 44°44' E 037°47'0 0.0
2018-Apr-30 08:30N 44°44' E 037°47'0 0.0
2018-Apr-30 08:00N 44°44' E 037°47'0 0.0
2018-Apr-30 07:30N 44°44' E 037°47'0 0.0
2018-Apr-30 07:00N 44°44' E 037°47'0 0.0
2018-Apr-30 06:30N 44°44' E 037°47'0 0.0
2018-Apr-30 06:00N 44°44' E 037°47'0 0.0
2018-Apr-30 05:27N 44°44' E 037°47'0 0.0
2018-Apr-30 05:00N 44°44' E 037°47'0 0.0
2018-Apr-30 04:27N 44°44' E 037°47'0 0.0
2018-Apr-30 04:00N 44°44' E 037°47'0 0.0
2018-Apr-30 03:30N 44°44' E 037°47'0 0.0
2018-Apr-30 03:00N 44°44' E 037°47'0 0.0
2018-Apr-30 02:30N 44°44' E 037°47'0 0.0
2018-Apr-30 02:00N 44°44' E 037°47'0 0.0
2018-Apr-30 01:30N 44°44' E 037°47'0 0.0
2018-Apr-30 01:00N 44°44' E 037°47'0 0.0
2018-Apr-30 00:29N 44°44' E 037°47'0 0.0
2018-Apr-29 23:59N 44°44' E 037°47'0 0.0
2018-Apr-29 23:29N 44°44' E 037°47'0 0.0
2018-Apr-29 22:59N 44°44' E 037°47'0 0.0
2018-Apr-29 22:26N 44°44' E 037°47'0 0.0
2018-Apr-29 21:59N 44°44' E 037°47'0 0.0
2018-Apr-29 21:29N 44°44' E 037°47'0 0.0
2018-Apr-29 20:59N 44°44' E 037°47'0 0.0
2018-Apr-29 20:29N 44°44' E 037°47'0 0.0
2018-Apr-29 19:59N 44°44' E 037°47'0 0.0
2018-Apr-29 19:29N 44°44' E 037°47'0 0.0
2018-Apr-29 18:59N 44°44' E 037°47'0 0.0
2018-Apr-29 18:29N 44°44' E 037°47'0 0.0
2018-Apr-29 17:59N 44°44' E 037°47'0 0.0
2018-Apr-29 17:29N 44°44' E 037°47'0 0.0
2018-Apr-29 16:56N 44°44' E 037°47'0 0.0
2018-Apr-29 16:29N 44°44' E 037°47'0 0.0
2018-Apr-29 15:59N 44°44' E 037°47'0 0.0
2018-Apr-29 15:29N 44°44' E 037°47'0 0.0
2018-Apr-29 14:56N 44°44' E 037°47'0 0.0
2018-Apr-29 14:29N 44°44' E 037°47'0 0.0
2018-Apr-29 13:59N 44°44' E 037°47'0 0.0
2018-Apr-29 13:29N 44°44' E 037°47'0 0.0
2018-Apr-29 12:59N 44°44' E 037°47'0 0.0
2018-Apr-29 12:29N 44°44' E 037°47'0 0.0
2018-Apr-29 11:59N 44°44' E 037°47'0 0.0
2018-Apr-29 11:29N 44°44' E 037°47'0 0.0
2018-Apr-29 10:56N 44°44' E 037°47'0 0.0
2018-Apr-29 10:29N 44°44' E 037°47'0 0.0
2018-Apr-29 09:59N 44°44' E 037°47'0 0.0
2018-Apr-29 09:29N 44°44' E 037°47'0 0.0
2018-Apr-29 08:59N 44°44' E 037°47'0 0.0
2018-Apr-29 08:29N 44°44' E 037°47'0 0.0
2018-Apr-29 07:59N 44°44' E 037°47'0 0.0
2018-Apr-29 07:29N 44°44' E 037°47'0 0.0
2018-Apr-29 06:59N 44°44' E 037°47'0 0.0
2018-Apr-29 06:29N 44°44' E 037°47'0 0.0
2018-Apr-29 05:59N 44°44' E 037°47'0 0.0
2018-Apr-29 05:29N 44°44' E 037°47'0 0.0
2018-Apr-29 04:59N 44°44' E 037°47'0 0.0
2018-Apr-29 04:29N 44°44' E 037°47'0 0.0
2018-Apr-29 03:59N 44°44' E 037°47'0 0.0
2018-Apr-29 03:29N 44°44' E 037°47'0 0.0
2018-Apr-29 02:59N 44°44' E 037°47'0 0.0
2018-Apr-29 02:29N 44°44' E 037°47'0 0.0
2018-Apr-29 01:59N 44°44' E 037°47'0 0.0
2018-Apr-29 01:29N 44°44' E 037°47'0 0.0
2018-Apr-29 00:59N 44°44' E 037°47'0 0.0
2018-Apr-29 00:29N 44°44' E 037°47'0 0.0
2018-Apr-28 23:56N 44°44' E 037°47'0 0.0
2018-Apr-28 23:29N 44°44' E 037°47'0 0.0
2018-Apr-28 22:56N 44°44' E 037°47'0 0.0
2018-Apr-28 22:29N 44°44' E 037°47'0 0.0
2018-Apr-28 21:59N 44°44' E 037°47'0 0.0
2018-Apr-28 21:29N 44°44' E 037°47'0 0.0
2018-Apr-28 20:59N 44°44' E 037°47'0 0.0
2018-Apr-28 20:29N 44°44' E 037°47'0 0.0
2018-Apr-28 19:59N 44°44' E 037°47'0 0.0
2018-Apr-28 19:29N 44°44' E 037°47'0 0.0
2018-Apr-28 18:59N 44°44' E 037°47'0 0.0
2018-Apr-28 18:29N 44°44' E 037°47'0 0.0
2018-Apr-28 17:59N 44°44' E 037°47'0 0.0
2018-Apr-28 17:29N 44°44' E 037°47'0 0.0
2018-Apr-28 16:59N 44°44' E 037°47'0 0.0
2018-Apr-28 16:29N 44°44' E 037°47'0 0.0
2018-Apr-28 15:59N 44°44' E 037°47'0 0.0
2018-Apr-28 15:29N 44°44' E 037°47'0 0.0
2018-Apr-28 14:59N 44°44' E 037°47'0 0.0
2018-Apr-28 14:29N 44°44' E 037°47'0 0.0
2018-Apr-28 13:59N 44°44' E 037°47'0 0.0
2018-Apr-28 13:29N 44°44' E 037°47'0 0.0
2018-Apr-28 12:59N 44°44' E 037°47'0 0.0
2018-Apr-28 12:29N 44°44' E 037°47'0 0.0
2018-Apr-28 11:59N 44°44' E 037°47'0 0.0
2018-Apr-28 11:29N 44°44' E 037°47'0 0.0
2018-Apr-28 10:59N 44°44' E 037°47'0 0.0
2018-Apr-28 10:29N 44°44' E 037°47'0 0.0
2018-Apr-28 09:59N 44°44' E 037°47'0 0.0
2018-Apr-28 09:29N 44°44' E 037°47'0 0.0
2018-Apr-28 08:59N 44°44' E 037°47'0 0.0
2018-Apr-28 08:29N 44°44' E 037°47'0 0.0
2018-Apr-28 07:59N 44°44' E 037°47'0 0.0
2018-Apr-28 07:28N 44°44' E 037°47'0 0.0
2018-Apr-28 06:58N 44°44' E 037°47'0 0.0
2018-Apr-28 06:28N 44°44' E 037°47'0 0.0
2018-Apr-28 05:58N 44°44' E 037°47'0 0.0
2018-Apr-28 05:28N 44°44' E 037°47'0 0.0
2018-Apr-28 04:58N 44°44' E 037°47'0 0.0
2018-Apr-28 04:28N 44°44' E 037°47'0 0.0
2018-Apr-28 03:58N 44°44' E 037°47'0 0.0
2018-Apr-28 03:28N 44°44' E 037°47'0 0.0
2018-Apr-28 02:58N 44°44' E 037°47'0 0.0
2018-Apr-28 02:28N 44°44' E 037°47'0 0.0
2018-Apr-28 01:58N 44°44' E 037°47'0 0.0
2018-Apr-28 01:28N 44°44' E 037°47'0 0.0
2018-Apr-28 00:58N 44°44' E 037°47'0 0.0
2018-Apr-28 00:28N 44°44' E 037°47'0 0.0
2018-Apr-27 23:58N 44°44' E 037°47'0 0.0
2018-Apr-27 23:28N 44°44' E 037°47'0 0.0
2018-Apr-27 22:58N 44°44' E 037°47'0 0.0
2018-Apr-27 22:28N 44°44' E 037°47'0 0.0
2018-Apr-27 21:58N 44°44' E 037°47'0 0.0
2018-Apr-27 21:28N 44°44' E 037°47'0 0.0
2018-Apr-27 20:58N 44°44' E 037°47'0 0.0
2018-Apr-27 20:28N 44°44' E 037°47'0 0.0
2018-Apr-27 19:58N 44°44' E 037°47'0 0.0
2018-Apr-27 19:28N 44°44' E 037°47'0 0.0
2018-Apr-27 18:58N 44°44' E 037°47'0 0.0
2018-Apr-27 18:28N 44°44' E 037°47'0 0.0
2018-Apr-27 17:58N 44°44' E 037°47'0 0.0
2018-Apr-27 17:28N 44°44' E 037°47'0 0.0
2018-Apr-27 16:55N 44°44' E 037°47'0 0.0
2018-Apr-27 16:28N 44°44' E 037°47'0 0.0
2018-Apr-27 16:00N 44°44' E 037°47'0 0.0
2018-Apr-27 15:30N 44°44' E 037°47'1 2.4
2018-Apr-27 15:00N 44°43' E 037°48'4 7.0
2018-Apr-27 14:30N 44°40' E 037°51'5 4.5
2018-Apr-27 13:30N 44°36' E 037°47'611.0
2018-Apr-27 13:00N 44°35' E 037°40'9 0.7
2018-Apr-27 00:37N 44°38' E 037°28'0 0.9
2018-Apr-27 00:28N 44°38' E 037°28'2 1.2
2018-Apr-26 23:01N 44°37' E 037°30'1 1.8
2018-Apr-26 22:43N 44°37' E 037°31'1 3.6
2018-Apr-26 22:30N 44°36' E 037°30'4 8.0
2018-Apr-26 22:00N 44°33' E 037°27'1 1.3
2018-Apr-26 21:12N 44°32' E 037°28'0 0.9
2018-Apr-26 20:51N 44°32' E 037°28'0 0.9
2018-Apr-26 20:27N 44°32' E 037°28'1 0.9
2018-Apr-26 19:54N 44°32' E 037°29'0 0.9
2018-Apr-26 19:27N 44°32' E 037°30'0 1.0
2018-Apr-26 19:00N 44°32' E 037°30'1 1.0
2018-Apr-26 18:23N 44°32' E 037°31'0 0.9
2018-Apr-26 17:53N 44°32' E 037°32'0 0.9
2018-Apr-26 17:29N 44°32' E 037°32'0 0.8
2018-Apr-26 16:59N 44°32' E 037°33'0 0.8
2018-Apr-26 16:26N 44°32' E 037°33'0 0.8
2018-Apr-26 15:59N 44°32' E 037°34'0 0.8
2018-Apr-26 15:29N 44°32' E 037°34'2 0.8
2018-Apr-26 13:29N 44°32' E 037°37'0 0.8
2018-Apr-26 12:56N 44°32' E 037°37'0 0.8
2018-Apr-26 12:29N 44°32' E 037°38'0 0.7
2018-Apr-26 11:59N 44°32' E 037°38'0 0.6
2018-Apr-26 11:14N 44°32' E 037°39'0 0.6
2018-Apr-26 10:59N 44°32' E 037°39'0 0.6
2018-Apr-26 10:29N 44°32' E 037°39'0 0.7
2018-Apr-26 09:59N 44°32' E 037°40'0 0.8
2018-Apr-26 09:29N 44°32' E 037°40'0 0.8
2018-Apr-26 08:59N 44°31' E 037°41'0 0.9
2018-Apr-26 08:26N 44°31' E 037°41'0 0.9
2018-Apr-26 07:59N 44°31' E 037°42'1 1.0
2018-Apr-26 07:29N 44°30' E 037°42'1 1.1
2018-Apr-26 06:59N 44°30' E 037°43'1 1.1
2018-Apr-26 06:26N 44°30' E 037°44'1 1.1
2018-Apr-26 05:56N 44°30' E 037°44'0 1.1
2018-Apr-26 05:29N 44°29' E 037°45'1 1.1
2018-Apr-26 04:59N 44°29' E 037°46'1 1.0
2018-Apr-26 04:20N 44°29' E 037°47'0 1.0
2018-Apr-26 03:56N 44°29' E 037°47'1 1.0
2018-Apr-26 03:14N 44°28' E 037°48'0 1.0
2018-Apr-26 02:59N 44°28' E 037°48'0 1.0
2018-Apr-26 02:29N 44°28' E 037°49'0 0.9
2018-Apr-26 01:59N 44°28' E 037°50'1 1.0
2018-Apr-26 01:23N 44°28' E 037°50'0 0.9
2018-Apr-26 00:59N 44°28' E 037°51'0 0.9
2018-Apr-26 00:29N 44°28' E 037°51'0 0.9
2018-Apr-25 23:59N 44°28' E 037°52'0 0.9
2018-Apr-25 23:29N 44°28' E 037°53'0 0.8
2018-Apr-25 22:59N 44°28' E 037°53'0 0.8
2018-Apr-25 22:29N 44°27' E 037°54'2 0.8
2018-Apr-25 20:14N 44°27' E 037°56'0 0.8
2018-Apr-25 19:53N 44°27' E 037°57'0 0.8
2018-Apr-25 19:26N 44°27' E 037°57'0 0.8
2018-Apr-25 18:59N 44°27' E 037°58'0 0.7
2018-Apr-25 18:26N 44°26' E 037°58'0 0.6
2018-Apr-25 17:47N 44°26' E 037°59'0 0.5
2018-Apr-25 17:08N 44°26' E 037°59'0 0.4
2018-Apr-25 16:59N 44°26' E 037°59'1 1.1
2018-Apr-25 16:29N 44°27' E 037°59'3 6.6
2018-Apr-25 16:00N 44°29' E 037°56'4 8.3
2018-Apr-25 15:30N 44°33' E 037°54'3 5.7
2018-Apr-25 14:59N 44°36' E 037°54'0 0.3
2018-Apr-25 14:29N 44°36' E 037°54'0 0.1
2018-Apr-25 13:59N 44°36' E 037°54'0 0.0
2018-Apr-25 13:29N 44°36' E 037°54'0 0.0
2018-Apr-25 12:59N 44°36' E 037°54'0 0.0
2018-Apr-25 12:29N 44°36' E 037°54'0 0.0
2018-Apr-25 11:59N 44°36' E 037°54'0 0.0
2018-Apr-25 11:29N 44°36' E 037°54'0 0.0
2018-Apr-25 10:59N 44°36' E 037°54'0 0.0
2018-Apr-25 10:26N 44°36' E 037°54'0 0.0
2018-Apr-25 09:59N 44°36' E 037°54'0 0.0
2018-Apr-25 09:29N 44°36' E 037°54'0 0.0
2018-Apr-25 08:59N 44°36' E 037°54'0 0.0
2018-Apr-25 08:29N 44°36' E 037°54'0 0.0
2018-Apr-25 07:59N 44°36' E 037°54'0 0.0
2018-Apr-25 07:29N 44°36' E 037°54'0 0.0
2018-Apr-25 06:59N 44°36' E 037°54'0 0.0
2018-Apr-25 06:29N 44°36' E 037°54'0 0.0
2018-Apr-25 05:59N 44°36' E 037°54'0 0.0
2018-Apr-25 05:26N 44°36' E 037°54'0 0.0
2018-Apr-25 04:59N 44°36' E 037°54'0 0.0
2018-Apr-25 04:29N 44°36' E 037°54'0 0.0
2018-Apr-25 03:59N 44°36' E 037°54'0 0.0
2018-Apr-25 03:29N 44°36' E 037°54'0 0.0
2018-Apr-25 02:59N 44°36' E 037°54'0 0.0
2018-Apr-25 02:29N 44°36' E 037°54'0 0.0
2018-Apr-25 01:59N 44°36' E 037°54'0 0.0
2018-Apr-25 01:29N 44°36' E 037°54'0 0.0
2018-Apr-25 00:59N 44°36' E 037°54'0 0.0
2018-Apr-25 00:29N 44°36' E 037°54'0 0.0
2018-Apr-24 23:59N 44°36' E 037°54'0 0.0
2018-Apr-24 23:29N 44°36' E 037°54'0 0.0
2018-Apr-24 22:59N 44°36' E 037°54'0 0.0
2018-Apr-24 22:29N 44°36' E 037°54'0 0.0
2018-Apr-24 21:59N 44°36' E 037°54'0 0.0
2018-Apr-24 21:29N 44°36' E 037°54'0 0.0
2018-Apr-24 20:59N 44°36' E 037°54'0 0.0
2018-Apr-24 20:29N 44°36' E 037°54'0 0.0
2018-Apr-24 19:59N 44°36' E 037°54'0 0.0
2018-Apr-24 19:29N 44°36' E 037°54'0 0.0
2018-Apr-24 18:59N 44°36' E 037°54'0 0.0
2018-Apr-24 18:29N 44°36' E 037°54'0 0.0
2018-Apr-24 17:59N 44°36' E 037°54'0 0.1
2018-Apr-24 17:29N 44°36' E 037°54'0 0.1
2018-Apr-24 16:59N 44°36' E 037°54'0 0.0
2018-Apr-24 16:29N 44°36' E 037°54'0 0.0
2018-Apr-24 15:56N 44°36' E 037°54'0 0.0
2018-Apr-24 15:29N 44°36' E 037°54'0 0.0
2018-Apr-24 14:59N 44°36' E 037°54'0 0.1
2018-Apr-24 14:29N 44°36' E 037°54'0 0.0
2018-Apr-24 13:59N 44°36' E 037°54'  

Dump ship's entire track history